Time;durP1;ratioP1;P1;durP2;ratioP2;P2;SDS_P1;SDS_P2;PMS_P1;PMS_P2;Temp;Humidity;BMP_temperature;BMP_pressure;BME280_temperature;BME280_humidity;BME280_pressure;Samples;Min_cycle;Max_cycle;Signal;HPM_P1;HPM_P2
2022/07/31 00:00:12;;;;;;;2.58;2.35;;;;;;;18.55;45.82;95929.13;4972124;28;20208;-79
2022/07/31 00:02:37;;;;;;;3.05;1.75;;;;;;;18.64;45.04;95930.63;4961089;28;20207;-78
2022/07/31 00:05:03;;;;;;;2.35;1.73;;;;;;;18.67;45.42;95928.50;4981149;28;20253;-79
2022/07/31 00:07:28;;;;;;;4.00;2.08;;;;;;;18.55;45.73;95924.72;4974676;28;20640;-80
2022/07/31 00:09:54;;;;;;;2.97;1.75;;;;;;;18.52;46.15;95930.34;4975253;28;20185;-79
2022/07/31 00:12:20;;;;;;;4.22;1.75;;;;;;;18.53;46.01;95926.69;4992020;28;20663;-80
2022/07/31 00:14:45;;;;;;;2.33;1.70;;;;;;;18.49;46.38;95927.28;4972051;28;20194;-79
2022/07/31 00:17:11;;;;;;;2.15;1.83;;;;;;;18.50;45.88;95923.63;4972702;28;20192;-80
2022/07/31 00:19:36;;;;;;;5.20;1.83;;;;;;;18.45;46.32;95921.56;4965514;28;20216;-80
2022/07/31 00:22:01;;;;;;;2.95;1.80;;;;;;;18.42;46.06;95921.94;4987521;28;20188;-79
2022/07/31 00:24:28;;;;;;;2.20;2.00;;;;;;;18.33;46.35;95923.88;4977300;28;20216;-80
2022/07/31 00:26:53;;;;;;;2.22;1.92;;;;;;;18.26;46.41;95917.72;4965649;28;20184;-80
2022/07/31 00:29:19;;;;;;;1.80;1.70;;;;;;;18.18;47.18;95919.66;4977130;28;20203;-80
2022/07/31 00:31:44;;;;;;;3.10;2.10;;;;;;;18.13;47.29;95911.53;4980985;28;20191;-79
2022/07/31 00:34:10;;;;;;;2.38;2.05;;;;;;;18.07;47.62;95915.69;4954314;28;20211;-79
2022/07/31 00:36:35;;;;;;;3.05;1.98;;;;;;;17.99;47.67;95905.28;4972198;28;20184;-80
2022/07/31 00:39:00;;;;;;;2.85;2.30;;;;;;;17.91;48.39;95915.91;4970862;28;20208;-78
2022/07/31 00:41:42;;;;;;;2.42;1.90;;;;;;;17.85;48.31;95908.78;4970332;28;20189;-78
2022/07/31 00:44:11;;;;;;;2.58;2.17;;;;;;;17.80;48.11;95918.00;4977709;28;20672;-79
2022/07/31 00:46:36;;;;;;;3.92;1.85;;;;;;;17.77;48.27;95917.56;4970028;28;20611;-79
2022/07/31 00:49:02;;;;;;;2.33;2.00;;;;;;;17.72;48.84;95912.84;4971720;28;20279;-78
2022/07/31 00:51:28;;;;;;;3.25;1.98;;;;;;;17.69;48.79;95913.19;4964445;28;20193;-78
2022/07/31 00:53:53;;;;;;;3.45;1.85;;;;;;;17.68;48.67;95911.56;4952852;28;20217;-78
2022/07/31 00:56:19;;;;;;;2.28;1.98;;;;;;;17.75;48.28;95914.28;4979205;28;20715;-79
2022/07/31 00:58:44;;;;;;;2.90;1.92;;;;;;;17.68;48.17;95903.69;4972342;28;20192;-79
2022/07/31 01:01:09;;;;;;;2.78;2.20;;;;;;;17.65;47.86;95904.03;4969597;28;20184;-79
2022/07/31 01:03:35;;;;;;;2.30;1.90;;;;;;;17.83;48.49;95907.13;4962971;28;20203;-79
2022/07/31 01:06:00;;;;;;;2.30;2.10;;;;;;;17.83;47.96;95907.13;4978574;28;20691;-79
2022/07/31 01:08:25;;;;;;;1.95;1.83;;;;;;;17.77;48.08;95910.50;4953795;28;20200;-78
2022/07/31 01:11:07;;;;;;;3.38;2.15;;;;;;;17.60;49.00;95910.84;4970616;28;20695;-78
2022/07/31 01:13:53;;;;;;;3.15;2.33;;;;;;;17.51;48.86;95910.13;4969733;28;20203;-79
2022/07/31 01:16:19;;;;;;;4.95;2.22;;;;;;;17.44;49.05;95914.47;4978200;28;20215;-79
2022/07/31 01:18:45;;;;;;;3.58;2.58;;;;;;;17.42;49.28;95914.66;4968753;28;20189;-80
2022/07/31 01:21:17;;;;;;;2.70;1.70;;;;;;;17.41;49.37;95907.78;4979018;28;20558;-79
2022/07/31 01:24:11;;;;;;;2.33;2.03;;;;;;;17.40;49.22;95911.38;4968748;28;20206;-78
2022/07/31 01:26:53;;;;;;;2.40;2.20;;;;;;;17.42;48.97;95906.78;4985884;28;20719;-78
2022/07/31 01:29:25;;;;;;;2.95;2.53;;;;;;;17.39;49.07;95914.19;4975243;28;20209;-77
2022/07/31 01:32:16;;;;;;;2.42;2.20;;;;;;;17.39;49.31;95914.19;4972020;28;20553;-79
2022/07/31 01:34:47;;;;;;;2.25;2.05;;;;;;;17.36;49.47;95910.13;4988206;28;20655;-78
2022/07/31 01:37:15;;;;;;;5.25;2.13;;;;;;;17.34;49.60;95906.06;4968214;28;20194;-78
2022/07/31 01:39:44;;;;;;;3.47;2.10;;;;;;;17.28;49.26;95900.53;4967064;28;20876;-79
2022/07/31 01:42:12;;;;;;;2.13;1.73;;;;;;;17.29;49.68;95903.97;4969070;28;20192;-79
2022/07/31 01:44:42;;;;;;;4.45;2.20;;;;;;;17.27;49.54;95906.78;4968812;28;20273;-79
2022/07/31 01:47:09;;;;;;;2.85;2.25;;;;;;;17.25;49.46;95907.97;4952221;28;20188;-79
2022/07/31 01:49:35;;;;;;;2.50;2.08;;;;;;;17.23;49.57;95904.69;4968074;28;20264;-80
2022/07/31 01:52:02;;;;;;;2.45;2.08;;;;;;;17.22;49.46;95913.53;4962065;28;20191;-79
2022/07/31 01:54:29;;;;;;;4.15;2.28;;;;;;;17.18;50.14;95914.91;4967308;28;20184;-79
2022/07/31 01:56:58;;;;;;;4.10;2.05;;;;;;;17.14;50.27;95908.38;4968256;28;20207;-79
2022/07/31 01:59:23;;;;;;;3.20;2.10;;;;;;;17.09;50.22;95906.31;4966326;28;20331;-79
2022/07/31 02:01:50;;;;;;;6.35;2.00;;;;;;;17.06;50.40;95906.66;4969161;28;20180;-79
2022/07/31 02:04:16;;;;;;;1.88;1.73;;;;;;;17.01;50.14;95908.19;4975075;28;20212;-78
2022/07/31 02:06:42;;;;;;;4.32;2.15;;;;;;;16.98;50.51;95904.13;4984440;28;20184;-79
2022/07/31 02:09:08;;;;;;;2.70;2.30;;;;;;;16.94;51.34;95901.03;4969138;28;20320;-80
2022/07/31 02:11:33;;;;;;;3.22;1.73;;;;;;;16.93;50.66;95899.41;4968917;28;20224;-79
2022/07/31 02:13:59;;;;;;;3.45;2.38;;;;;;;16.95;50.32;95907.09;4972138;28;20219;-79
2022/07/31 02:16:25;;;;;;;3.95;2.20;;;;;;;17.02;49.72;95905.38;4971322;28;20188;-79
2022/07/31 02:18:51;;;;;;;2.40;2.17;;;;;;;17.09;49.34;95901.06;4972408;28;20255;-79
2022/07/31 02:21:17;;;;;;;3.53;2.15;;;;;;;17.17;49.39;95903.59;4974040;28;20636;-80
2022/07/31 02:23:42;;;;;;;2.47;2.15;;;;;;;17.26;48.95;95902.53;4986812;28;20217;-80
2022/07/31 02:26:07;;;;;;;3.72;2.25;;;;;;;17.34;48.75;95896.38;4957157;28;20638;-79
2022/07/31 02:28:34;;;;;;;2.45;2.25;;;;;;;17.33;48.75;95892.13;4995076;28;20219;-79
2022/07/31 02:31:00;;;;;;;2.28;1.95;;;;;;;17.32;49.00;95894.94;4957595;28;20678;-79
2022/07/31 02:33:26;;;;;;;2.15;1.70;;;;;;;17.27;48.96;95884.97;4997930;28;20203;-79
2022/07/31 02:35:55;;;;;;;2.28;2.08;;;;;;;17.24;49.33;95888.78;4974010;28;20183;-80
2022/07/31 02:38:23;;;;;;;3.45;2.00;;;;;;;17.23;49.21;95888.97;4973887;28;20196;-79
2022/07/31 02:40:50;;;;;;;5.00;2.13;;;;;;;17.18;49.25;95881.59;4960672;28;20208;-79
2022/07/31 02:43:15;;;;;;;2.13;1.92;;;;;;;17.18;49.11;95886.84;4978893;28;20742;-79
2022/07/31 02:45:41;;;;;;;2.95;2.20;;;;;;;17.17;49.39;95889.66;4975821;28;20184;-79
2022/07/31 02:48:08;;;;;;;3.15;2.17;;;;;;;17.15;49.02;95887.22;4983080;28;20184;-79
2022/07/31 02:50:33;;;;;;;2.60;2.20;;;;;;;17.21;48.97;95894.34;4977293;28;20179;-79
2022/07/31 02:52:59;;;;;;;2.22;1.88;;;;;;;17.20;49.25;95890.09;4992781;28;20573;-78
2022/07/31 02:55:24;;;;;;;3.88;2.10;;;;;;;17.23;48.93;95889.78;4959585;28;20192;-80
2022/07/31 02:57:50;;;;;;;2.72;1.95;;;;;;;17.25;48.86;95887.78;4973594;28;20188;-80
2022/07/31 03:00:22;;;;;;;2.42;2.22;;;;;;;17.36;48.46;95888.31;4977066;28;20210;-80
2022/07/31 03:02:52;;;;;;;2.30;2.10;;;;;;;17.36;48.58;95889.13;4983144;28;20204;-79
2022/07/31 03:05:18;;;;;;;2.28;2.08;;;;;;;17.37;48.57;95888.13;4979452;28;20183;-80
2022/07/31 03:07:44;;;;;;;3.28;2.28;;;;;;;17.29;48.76;95882.97;4974963;28;20187;-78
2022/07/31 03:10:09;;;;;;;2.33;2.10;;;;;;;17.19;48.71;95877.16;4972828;28;20176;-80
2022/07/31 03:12:38;;;;;;;2.92;2.20;;;;;;;17.14;49.00;95880.34;4975255;28;20207;-79
2022/07/31 03:15:08;;;;;;;3.47;2.28;;;;;;;17.09;49.46;95877.44;4971753;28;20180;-78
2022/07/31 03:17:36;;;;;;;3.50;2.13;;;;;;;17.06;49.38;95880.44;4985858;28;20180;-80
2022/07/31 03:20:01;;;;;;;1.85;1.75;;;;;;;17.04;49.52;95877.16;4975601;28;20295;-79
2022/07/31 03:22:26;;;;;;;4.18;1.92;;;;;;;17.04;49.34;95874.53;4973791;28;20799;-79
2022/07/31 03:24:52;;;;;;;3.45;1.88;;;;;;;17.06;49.36;95877.81;4971420;28;20181;-78
2022/07/31 03:27:17;;;;;;;2.35;1.98;;;;;;;17.04;49.36;95866.66;4981777;28;20690;-77
2022/07/31 03:29:43;;;;;;;2.75;1.98;;;;;;;17.11;49.31;95874.63;4982336;28;20183;-78
2022/07/31 03:32:08;;;;;;;4.18;1.88;;;;;;;17.02;48.88;95870.47;4954966;28;20616;-78
2022/07/31 03:34:33;;;;;;;2.10;1.90;;;;;;;16.98;49.54;95867.41;4973009;28;20191;-79
2022/07/31 03:36:59;;;;;;;3.67;1.90;;;;;;;17.05;49.14;95876.19;4977820;28;20188;-78
2022/07/31 03:39:24;;;;;;;2.63;1.58;;;;;;;17.10;49.08;95880.88;4955563;28;20706;-79
2022/07/31 03:41:50;;;;;;;2.97;2.05;;;;;;;17.05;49.03;95878.81;4965062;28;20214;-79
2022/07/31 03:44:15;;;;;;;3.67;1.80;;;;;;;17.09;49.13;95885.31;4971574;28;20224;-82
2022/07/31 03:46:41;;;;;;;2.85;1.95;;;;;;;17.13;49.04;95885.75;4955029;28;20196;-79
2022/07/31 03:49:06;;;;;;;5.95;1.70;;;;;;;17.16;48.89;95882.78;4973845;28;20188;-79
2022/07/31 03:51:32;;;;;;;3.35;2.03;;;;;;;17.11;49.22;95882.50;4971245;28;20228;-80
2022/07/31 03:53:57;;;;;;;7.32;1.92;;;;;;;17.12;48.94;95881.50;4954891;28;20770;-78
2022/07/31 03:56:23;;;;;;;2.30;2.10;;;;;;;17.27;48.48;95887.59;4972763;28;20256;-79
2022/07/31 03:58:48;;;;;;;3.55;1.90;;;;;;;17.25;48.63;95876.47;4980031;28;20272;-79
2022/07/31 04:01:16;;;;;;;2.25;2.05;;;;;;;17.23;48.76;95883.72;4972021;28;20195;-81
2022/07/31 04:03:41;;;;;;;2.60;2.22;;;;;;;17.42;48.08;95879.72;4964554;28;20279;-79
2022/07/31 04:06:07;;;;;;;4.18;1.90;;;;;;;17.47;47.61;95885.22;4969444;28;20189;-77
2022/07/31 04:08:32;;;;;;;2.47;2.22;;;;;;;17.58;47.39;95886.56;4971362;28;20187;-81
2022/07/31 04:10:58;;;;;;;3.15;2.30;;;;;;;17.46;47.73;95876.53;4964264;28;20183;-78
2022/07/31 04:13:23;;;;;;;3.33;2.00;;;;;;;17.57;47.38;95880.50;4969284;28;20208;-77
2022/07/31 04:15:51;;;;;;;2.10;1.90;;;;;;;17.61;47.57;95883.59;4987651;28;20185;-80
2022/07/31 04:18:16;;;;;;;2.22;1.80;;;;;;;17.56;47.60;95879.69;4955140;28;20275;-80
2022/07/31 04:20:42;;;;;;;3.85;1.90;;;;;;;17.67;47.01;95878.44;4981773;28;20222;-79
2022/07/31 04:23:07;;;;;;;2.85;1.92;;;;;;;17.79;47.01;95879.63;4990770;28;20213;-79
2022/07/31 04:25:32;;;;;;;2.20;1.90;;;;;;;17.77;47.10;95886.06;4989993;28;20196;-79
2022/07/31 04:27:59;;;;;;;2.67;1.80;;;;;;;17.75;47.16;95888.84;4991373;28;20203;-79
2022/07/31 04:30:24;;;;;;;2.45;2.10;;;;;;;17.94;46.72;95876.97;4979607;28;20194;-79
2022/07/31 04:32:49;;;;;;;4.70;2.25;;;;;;;17.95;46.77;95885.66;4988493;28;20209;-78
2022/07/31 04:35:15;;;;;;;4.15;2.38;;;;;;;18.11;46.20;95890.69;4981040;28;20191;-78
2022/07/31 04:37:40;;;;;;;2.80;2.10;;;;;;;18.16;46.23;95885.69;4971264;28;20234;-79
2022/07/31 04:40:06;;;;;;;3.35;2.50;;;;;;;18.37;45.74;95890.13;4980107;28;20680;-78
2022/07/31 04:42:32;;;;;;;2.25;2.05;;;;;;;18.59;45.26;95893.59;4970609;28;20689;-76
2022/07/31 04:44:57;;;;;;;1.98;1.83;;;;;;;18.77;44.89;95899.22;4989246;28;20207;-79
2022/07/31 04:47:22;;;;;;;2.33;2.00;;;;;;;18.76;45.04;95896.78;4977520;28;20188;-79
2022/07/31 04:49:48;;;;;;;2.83;1.90;;;;;;;18.89;44.40;95896.88;4969546;28;20191;-78
2022/07/31 04:52:13;;;;;;;2.83;2.20;;;;;;;18.94;44.26;95899.78;4972203;28;20207;-79
2022/07/31 04:54:38;;;;;;;2.97;2.00;;;;;;;18.96;44.35;95906.47;4969046;28;20180;-79
2022/07/31 04:57:04;;;;;;;2.35;1.95;;;;;;;18.86;44.59;95903.34;4968883;28;20203;-79
2022/07/31 04:59:30;;;;;;;3.35;1.77;;;;;;;18.93;44.39;95898.97;4963918;28;20210;-79
2022/07/31 05:01:55;;;;;;;2.58;2.00;;;;;;;19.04;44.32;95896.81;4957813;28;20208;-78
2022/07/31 05:04:20;;;;;;;3.33;2.28;;;;;;;18.81;44.37;95895.19;4968049;28;20192;-78
2022/07/31 05:06:50;;;;;;;2.58;2.33;;;;;;;18.77;44.51;95893.16;4967420;28;20185;-78
2022/07/31 05:09:21;;;;;;;3.15;2.13;;;;;;;18.84;44.58;95897.47;4974447;28;20263;-79
2022/07/31 05:11:47;;;;;;;2.67;2.00;;;;;;;18.77;44.71;95898.41;4960937;28;20192;-79
2022/07/31 05:14:13;;;;;;;2.28;2.10;;;;;;;18.78;44.51;95902.69;4962691;28;20203;-79
2022/07/31 05:16:38;;;;;;;1.77;1.63;;;;;;;18.79;44.83;95899.84;4969458;28;20200;-78
2022/07/31 05:19:04;;;;;;;4.43;1.90;;;;;;;18.86;44.25;95900.72;4970737;28;20205;-78
2022/07/31 05:21:30;;;;;;;2.38;2.00;;;;;;;18.86;44.57;95902.53;4974189;28;20187;-77
2022/07/31 05:23:56;;;;;;;2.70;1.70;;;;;;;18.84;44.78;95909.81;4990474;28;20224;-77
2022/07/31 05:26:22;;;;;;;2.83;2.08;;;;;;;19.00;44.51;95906.09;4991229;28;20197;-76
2022/07/31 05:28:48;;;;;;;2.22;1.85;;;;;;;19.02;44.26;95899.63;5008504;28;20192;-76
2022/07/31 05:31:15;;;;;;;5.50;2.20;;;;;;;19.10;43.93;95899.50;4980311;28;20277;-78
2022/07/31 05:33:40;;;;;;;2.10;1.90;;;;;;;19.08;43.95;95895.41;4953909;28;20208;-78
2022/07/31 05:36:06;;;;;;;4.13;2.17;;;;;;;19.14;44.06;95895.47;4968763;28;20180;-78
2022/07/31 05:38:32;;;;;;;5.72;2.10;;;;;;;19.27;43.50;95891.31;4967594;28;20187;-80
2022/07/31 05:40:57;;;;;;;2.53;2.10;;;;;;;19.21;43.51;95891.06;4952023;28;20208;-80
2022/07/31 05:43:22;;;;;;;3.55;1.90;;;;;;;19.28;43.38;95891.09;4969489;28;20672;-80
2022/07/31 05:45:47;;;;;;;2.47;2.10;;;;;;;19.39;43.45;95895.81;4967230;28;20299;-79
2022/07/31 05:48:14;;;;;;;2.95;2.00;;;;;;;19.49;43.09;95901.56;4969984;28;20180;-79
2022/07/31 05:50:44;;;;;;;3.85;2.10;;;;;;;19.59;42.85;95897.78;4960448;28;20288;-80
2022/07/31 05:53:14;;;;;;;2.63;2.10;;;;;;;19.58;43.08;95898.78;4984712;28;20279;-80
2022/07/31 05:55:40;;;;;;;4.38;2.00;;;;;;;19.69;43.40;95906.13;4951543;28;20180;-80
2022/07/31 05:58:05;;;;;;;1.90;1.80;;;;;;;19.84;42.75;95903.38;4976382;28;20658;-79
2022/07/31 06:00:31;;;;;;;2.95;1.98;;;;;;;19.93;43.29;95904.84;4976217;28;20200;-78
2022/07/31 06:02:58;;;;;;;2.45;2.00;;;;;;;20.01;42.91;95902.03;4971736;28;20227;-78
2022/07/31 06:05:24;;;;;;;4.97;2.10;;;;;;;20.11;43.52;95899.81;4973372;28;20270;-80
2022/07/31 06:07:50;;;;;;;4.03;2.08;;;;;;;20.19;42.84;95906.75;4964741;28;20247;-80
2022/07/31 06:10:15;;;;;;;3.63;1.95;;;;;;;20.40;42.61;95906.59;4989945;28;20267;-79
2022/07/31 06:12:41;;;;;;;3.28;2.10;;;;;;;20.48;42.93;95906.44;4974526;28;20274;-79
2022/07/31 06:15:06;;;;;;;2.78;1.77;;;;;;;20.52;42.33;95906.88;4993144;28;20186;-80
2022/07/31 06:17:32;;;;;;;3.45;1.90;;;;;;;20.70;42.10;95906.28;4999839;28;20255;-79
2022/07/31 06:19:57;;;;;;;2.67;1.90;;;;;;;20.84;42.32;95911.34;4956228;28;20208;-80
2022/07/31 06:22:25;;;;;;;1.95;1.80;;;;;;;20.91;41.43;95912.16;4971646;28;20208;-79
2022/07/31 06:24:51;;;;;;;4.50;1.95;;;;;;;21.07;41.75;95913.59;4975878;28;20199;-79
2022/07/31 06:27:19;;;;;;;2.85;2.08;;;;;;;21.31;41.10;95914.00;4994948;28;20199;-79
2022/07/31 06:29:44;;;;;;;2.05;1.60;;;;;;;21.52;40.86;95915.59;5011184;28;20329;-77
2022/07/31 06:32:09;;;;;;;3.17;1.98;;;;;;;21.77;39.50;95913.91;5002517;28;20188;-77
2022/07/31 06:34:35;;;;;;;4.47;2.08;;;;;;;22.15;39.56;95911.31;4983119;28;20192;-79
2022/07/31 06:37:00;;;;;;;3.58;1.83;;;;;;;22.40;38.79;95915.88;4962105;28;20200;-78
2022/07/31 06:39:25;;;;;;;2.80;1.58;;;;;;;22.71;37.81;95918.56;4972308;28;20294;-79
2022/07/31 06:41:52;;;;;;;2.20;1.92;;;;;;;22.81;37.17;95921.53;4989108;28;20200;-79
2022/07/31 06:44:18;;;;;;;3.28;1.80;;;;;;;23.20;35.84;95916.16;4965525;28;20683;-79
2022/07/31 06:46:44;;;;;;;4.68;1.70;;;;;;;23.30;35.83;95916.47;4974396;28;20196;-78
2022/07/31 06:49:09;;;;;;;2.28;1.63;;;;;;;23.70;35.49;95916.94;4975422;28;20191;-78
2022/07/31 06:51:35;;;;;;;3.97;2.15;;;;;;;23.88;35.60;95911.63;4992527;28;20196;-79
2022/07/31 06:54:02;;;;;;;3.45;1.85;;;;;;;24.05;36.13;95919.78;4963650;28;20216;-79
2022/07/31 06:56:28;;;;;;;3.42;1.92;;;;;;;24.16;34.88;95921.69;4978766;28;20198;-78
2022/07/31 06:58:54;;;;;;;2.35;1.70;;;;;;;23.82;36.04;95922.28;4978507;28;20190;-78
2022/07/31 07:01:19;;;;;;;5.28;1.80;;;;;;;24.12;34.10;95920.53;4977681;28;20180;-77
2022/07/31 07:03:44;;;;;;;1.63;1.52;;;;;;;24.75;33.23;95919.28;4972104;28;20552;-79
2022/07/31 07:06:10;;;;;;;1.90;1.70;;;;;;;24.73;34.03;95918.69;4976841;28;20181;-78
2022/07/31 07:08:35;;;;;;;2.72;1.88;;;;;;;25.46;33.29;95917.53;4975432;28;20208;-79
2022/07/31 07:11:00;;;;;;;3.05;1.90;;;;;;;25.96;32.04;95912.53;4971670;28;20779;-79
2022/07/31 07:13:26;;;;;;;1.88;1.55;;;;;;;26.34;31.79;95917.28;4989538;28;20234;-80
2022/07/31 07:15:51;;;;;;;3.65;1.85;;;;;;;26.37;32.65;95916.00;4953747;28;20192;-80
2022/07/31 07:18:17;;;;;;;2.00;1.65;;;;;;;26.93;31.64;95917.00;4972018;28;20188;-78
2022/07/31 07:20:42;;;;;;;2.65;1.85;;;;;;;27.69;30.01;95923.56;4972147;28;20211;-79
2022/07/31 07:23:07;;;;;;;2.40;1.83;;;;;;;27.68;30.38;95916.63;4970471;28;20201;-79
2022/07/31 07:25:33;;;;;;;2.00;1.73;;;;;;;27.29;30.07;95919.22;4970222;28;20187;-77
2022/07/31 07:27:58;;;;;;;2.45;1.85;;;;;;;26.87;30.81;95929.44;4988877;28;20203;-79
2022/07/31 07:30:27;;;;;;;3.53;1.90;;;;;;;26.37;30.75;95919.47;4971701;28;20584;-79
2022/07/31 07:32:52;;;;;;;2.45;1.55;;;;;;;26.10;32.20;95923.72;4974588;28;20688;-79
2022/07/31 07:35:17;;;;;;;3.92;1.65;;;;;;;25.81;32.50;95917.53;4971002;28;20180;-78
2022/07/31 07:37:43;;;;;;;3.47;1.63;;;;;;;25.30;32.94;95913.72;4970258;28;20691;-80
2022/07/31 07:40:08;;;;;;;2.20;1.40;;;;;;;25.09;33.76;95918.56;4962570;28;20211;-79
2022/07/31 07:42:34;;;;;;;4.28;1.75;;;;;;;25.20;33.82;95918.81;4993272;28;20243;-78
2022/07/31 07:44:59;;;;;;;2.60;1.52;;;;;;;25.01;33.73;95915.41;4978041;28;20571;-77
2022/07/31 07:47:24;;;;;;;4.07;1.40;;;;;;;24.94;33.92;95917.34;4967319;28;20183;-78
2022/07/31 07:49:50;;;;;;;3.45;1.70;;;;;;;25.38;33.11;95918.69;4977383;28;20184;-79
2022/07/31 07:52:16;;;;;;;1.65;1.40;;;;;;;25.56;33.55;95910.59;4952623;28;20259;-78
2022/07/31 07:54:42;;;;;;;1.90;1.50;;;;;;;25.77;32.56;95914.53;4979488;28;20211;-78
2022/07/31 07:57:08;;;;;;;3.17;1.42;;;;;;;26.31;31.93;95914.25;4963520;28;20212;-79
2022/07/31 07:59:34;;;;;;;2.33;1.30;;;;;;;27.54;30.40;95917.97;4955680;28;20299;-79
2022/07/31 08:01:59;;;;;;;2.20;1.50;;;;;;;28.30;29.03;95921.69;4981227;28;20695;-80
2022/07/31 08:04:24;;;;;;;4.70;1.40;;;;;;;28.37;29.13;95919.63;4968709;28;20279;-79
2022/07/31 08:06:50;;;;;;;1.60;1.50;;;;;;;29.12;27.21;95914.47;4970043;28;20675;-79
2022/07/31 08:09:15;;;;;;;1.95;1.70;;;;;;;29.33;27.70;95917.06;4979207;28;20180;-79
2022/07/31 08:11:40;;;;;;;2.28;1.60;;;;;;;28.38;28.56;95910.56;4985214;28;20206;-79
2022/07/31 08:14:06;;;;;;;2.60;1.35;;;;;;;28.73;28.08;95922.69;4986083;28;20208;-79
2022/07/31 08:16:31;;;;;;;1.40;1.30;;;;;;;28.88;27.64;95916.66;4969396;28;20767;-77
2022/07/31 08:18:57;;;;;;;2.03;1.33;;;;;;;28.64;27.74;95914.31;4980302;28;20194;-78
2022/07/31 08:21:22;;;;;;;1.50;1.40;;;;;;;27.96;29.07;95915.66;4978017;28;20195;-78
2022/07/31 08:23:48;;;;;;;2.85;1.45;;;;;;;27.50;30.29;95907.00;4972152;28;20204;-79
2022/07/31 08:26:13;;;;;;;2.35;1.50;;;;;;;27.52;29.12;95914.75;4983013;28;20188;-79
2022/07/31 08:28:39;;;;;;;3.33;1.60;;;;;;;27.65;29.35;95912.56;4957649;28;20201;-78
2022/07/31 08:31:04;;;;;;;2.05;1.75;;;;;;;27.42;30.35;95903.94;4976400;28;20203;-79
2022/07/31 08:33:31;;;;;;;3.83;1.60;;;;;;;27.49;29.95;95909.91;4990967;28;20224;-78
2022/07/31 08:35:57;;;;;;;6.57;1.70;;;;;;;27.42;29.92;95911.94;4980907;28;20192;-79
2022/07/31 08:38:22;;;;;;;5.25;1.83;;;;;;;27.47;30.02;95907.47;4993697;28;20190;-79
2022/07/31 08:40:48;;;;;;;2.90;1.48;;;;;;;28.01;30.23;95913.06;4984173;28;20882;-79
2022/07/31 08:43:13;;;;;;;1.58;1.48;;;;;;;27.97;28.98;95905.78;4971765;28;20711;-79
2022/07/31 08:45:42;;;;;;;1.67;1.50;;;;;;;27.42;30.41;95904.75;4969795;28;20190;-80
2022/07/31 08:48:08;;;;;;;2.58;1.52;;;;;;;27.30;30.98;95902.19;4987976;28;20239;-79
2022/07/31 08:50:38;;;;;;;3.15;1.70;;;;;;;27.65;30.16;95903.72;4963547;28;20274;-79
2022/07/31 08:53:04;;;;;;;3.85;1.33;;;;;;;27.31;30.45;95906.47;4969292;28;20204;-79
2022/07/31 08:55:30;;;;;;;2.67;1.60;;;;;;;27.53;30.26;95905.69;4986385;28;20202;-79
2022/07/31 08:57:56;;;;;;;1.70;1.60;;;;;;;27.75;30.12;95903.91;4957061;28;20196;-80
2022/07/31 09:00:21;;;;;;;4.60;1.80;;;;;;;27.64;29.99;95902.09;4978635;28;20234;-78
2022/07/31 09:02:47;;;;;;;5.70;1.48;;;;;;;27.59;30.48;95896.72;4968283;28;20587;-80
2022/07/31 09:05:13;;;;;;;2.63;1.73;;;;;;;27.59;29.80;95904.72;4970204;28;20242;-80
2022/07/31 09:07:38;;;;;;;2.33;1.63;;;;;;;27.45;30.73;95898.09;4986188;28;20192;-80
2022/07/31 09:10:21;;;;;;;2.88;1.52;;;;;;;27.35;30.32;95893.44;4970518;28;20185;-79
2022/07/31 09:12:47;;;;;;;3.25;1.40;;;;;;;27.15;30.26;95898.47;4953864;28;20207;-80
2022/07/31 09:15:23;;;;;;;5.00;1.70;;;;;;;27.38;30.54;95895.59;4978364;28;20190;-79
2022/07/31 09:17:49;;;;;;;2.92;1.30;;;;;;;27.54;30.58;95893.97;4961998;28;20195;-78
2022/07/31 09:20:32;;;;;;;3.50;1.65;;;;;;;27.76;29.78;95899.38;4978597;28;20230;-79
2022/07/31 09:23:07;;;;;;;9.38;1.73;;;;;;;27.71;30.20;95892.09;4967187;28;20912;-80
2022/07/31 09:25:33;;;;;;;4.05;1.90;;;;;;;28.48;29.24;95897.31;4968059;28;20198;-79
2022/07/31 09:28:03;;;;;;;2.75;1.50;;;;;;;28.56;28.11;95892.59;4977638;28;20199;-79
2022/07/31 09:30:28;;;;;;;4.35;1.52;;;;;;;28.07;29.41;95895.22;4969969;28;20182;-79
2022/07/31 09:32:56;;;;;;;3.10;1.33;;;;;;;28.33;29.17;95894.47;4968797;28;20295;-79
2022/07/31 09:35:21;;;;;;;3.67;1.75;;;;;;;28.08;29.17;95897.63;4983590;28;20571;-79
2022/07/31 09:37:46;;;;;;;3.65;1.70;;;;;;;28.07;30.18;95882.66;4983814;28;20268;-78
2022/07/31 09:40:12;;;;;;;4.28;1.85;;;;;;;28.59;29.12;95889.41;4968613;28;20692;-79
2022/07/31 09:42:42;;;;;;;2.75;1.60;;;;;;;28.81;28.47;95895.50;4970486;28;20220;-79
2022/07/31 09:45:21;;;;;;;1.85;1.60;;;;;;;28.62;28.83;95884.34;4969824;28;20683;-80
2022/07/31 09:47:47;;;;;;;6.57;1.50;;;;;;;28.10;29.15;95894.72;4969910;28;20188;-80
2022/07/31 09:50:13;;;;;;;4.03;1.70;;;;;;;27.81;29.07;95886.91;4968821;28;20267;-79
2022/07/31 09:52:39;;;;;;;5.68;2.03;;;;;;;27.98;29.87;95886.84;4968054;28;20231;-79
2022/07/31 09:55:08;;;;;;;4.07;1.75;;;;;;;27.98;29.98;95883.38;4969067;28;20180;-80
2022/07/31 09:57:36;;;;;;;5.25;2.03;;;;;;;27.88;30.01;95881.38;4976668;28;20195;-80
2022/07/31 10:00:06;;;;;;;2.28;1.70;;;;;;;28.32;29.85;95876.84;4967116;28;20204;-79
2022/07/31 10:02:32;;;;;;;4.07;2.13;;;;;;;28.07;29.76;95869.31;4968819;28;20310;-79
2022/07/31 10:04:58;;;;;;;5.28;2.10;;;;;;;28.54;29.52;95884.03;4976571;28;20287;-79
2022/07/31 10:07:26;;;;;;;2.95;1.77;;;;;;;28.71;29.26;95882.00;4991450;28;20790;-80
2022/07/31 10:09:55;;;;;;;3.67;1.80;;;;;;;28.13;29.93;95879.00;4969299;28;20180;-80
2022/07/31 10:12:21;;;;;;;4.05;1.90;;;;;;;28.06;29.50;95874.91;4969595;28;20291;-79
2022/07/31 10:14:49;;;;;;;8.18;2.10;;;;;;;27.94;29.57;95880.41;4970630;28;20662;-80
2022/07/31 10:17:19;;;;;;;5.25;2.10;;;;;;;27.79;30.74;95888.19;4969472;28;20204;-79
2022/07/31 10:19:46;;;;;;;5.18;1.80;;;;;;;27.80;30.56;95887.16;4967311;28;20238;-79
2022/07/31 10:22:17;;;;;;;5.68;2.15;;;;;;;27.84;30.20;95886.41;4976259;28;20180;-80
2022/07/31 10:24:46;;;;;;;6.00;1.95;;;;;;;28.19;29.90;95874.53;4985139;28;20242;-79
2022/07/31 10:27:13;;;;;;;3.92;2.22;;;;;;;28.25;30.11;95876.19;4983434;28;20202;-80
2022/07/31 10:29:39;;;;;;;5.60;2.20;;;;;;;28.52;29.80;95870.88;4968025;28;20219;-79
2022/07/31 10:32:05;;;;;;;2.60;1.92;;;;;;;29.02;27.72;95869.75;4974308;28;20193;-79
2022/07/31 10:34:32;;;;;;;7.45;2.00;;;;;;;29.26;29.32;95871.00;4967724;28;20188;-79
2022/07/31 10:37:02;;;;;;;5.97;1.85;;;;;;;28.95;28.45;95872.63;4976497;28;20203;-79
2022/07/31 10:39:41;;;;;;;2.40;1.88;;;;;;;28.95;29.14;95864.63;4950350;28;20205;-80
2022/07/31 10:42:14;;;;;;;4.88;1.85;;;;;;;29.00;29.23;95870.00;4967129;28;20754;-79
2022/07/31 10:45:03;;;;;;;3.17;2.05;;;;;;;29.17;28.57;95864.53;4965176;28;20648;-80
2022/07/31 10:47:28;;;;;;;2.65;1.80;;;;;;;28.99;28.32;95859.59;4986617;28;20199;-79
2022/07/31 10:49:54;;;;;;;3.97;1.95;;;;;;;28.74;28.26;95858.28;4994227;28;20188;-79
2022/07/31 10:52:36;;;;;;;7.32;2.28;;;;;;;28.95;28.99;95858.47;4971685;28;20207;-79
2022/07/31 10:55:13;;;;;;;5.10;1.80;;;;;;;29.28;28.58;95855.50;4979915;28;20588;-79
2022/07/31 10:57:38;;;;;;;2.45;2.10;;;;;;;29.03;28.31;95850.78;4972956;28;20198;-78
2022/07/31 11:00:10;;;;;;;3.58;1.90;;;;;;;28.60;29.45;95846.38;4970412;28;20212;-79
2022/07/31 11:02:36;;;;;;;5.07;1.90;;;;;;;28.40;29.12;95849.69;4988005;28;20576;-80
2022/07/31 11:05:16;;;;;;;4.10;2.10;;;;;;;28.29;28.87;95841.84;4979399;28;20188;-78
2022/07/31 11:07:43;;;;;;;5.05;2.00;;;;;;;28.20;29.56;95844.13;4979476;28;20561;-80
2022/07/31 11:10:22;;;;;;;3.28;2.00;;;;;;;27.84;29.41;95843.72;4973540;28;20184;-80
2022/07/31 11:13:03;;;;;;;2.22;1.73;;;;;;;28.17;29.88;95836.59;4972119;28;20203;-80
2022/07/31 11:15:29;;;;;;;1.95;1.77;;;;;;;28.60;28.54;95826.88;4971180;28;20652;-80
2022/07/31 11:17:55;;;;;;;1.95;1.70;;;;;;;28.88;28.42;95829.25;4986712;28;20192;-80
2022/07/31 11:20:23;;;;;;;2.72;1.75;;;;;;;29.15;28.50;95836.41;4967532;28;20207;-78
2022/07/31 11:22:56;;;;;;;4.28;1.67;;;;;;;29.14;27.77;95826.78;5011011;28;20218;-79
2022/07/31 11:25:22;;;;;;;8.52;1.85;;;;;;;28.86;27.68;95830.56;4994024;28;20202;-77
2022/07/31 11:27:47;;;;;;;2.42;1.80;;;;;;;28.96;27.25;95830.66;5010899;28;20184;-76
2022/07/31 11:30:13;;;;;;;3.15;1.50;;;;;;;28.87;27.97;95818.81;4973859;28;20203;-77
2022/07/31 11:32:38;;;;;;;3.92;1.95;;;;;;;28.73;28.43;95816.59;4984522;28;20212;-78